Latest Coastal Weather Observations for Sydney Airport

IDN60701

Issued at 4:02 pm EDT Tuesday 23 December 2014 (issued every 10 minutes, with the page automatically refreshed every 10 minutes)

About coastal observations | Map of coastal stations | Coastal observations for NSW | Marine services | Other Formats
Station Details ID: 066037 Name: SYDNEY AIRPORT AMO Lat: -33.95 Lon: 151.17 Height: 6.0 m
Data from the previous 72 hours. | See also: Recent months at Sydney Airport
Date/Time
EDT
Temp

°C
Wind Pressure Rain
since 9am
mm
Weather Cloud Vis
km
Sea
Height
m
Swell
Dir
 
Speed
knots
Gust
knots
hPa Trend Height
m
Period
s
Dir
23/03:54pm 24.4 NE 15 18 1010.9 - 2.6 Rain Mostly clear 10 - - - -
23/03:30pm 23.3 NNE 8 10 1012.9 - 1.6 Thunder Mostly clear 8 - - - -
23/03:00pm 23.5 NE 15 18 1012.5 R 0.4 Rain Cloudy 8 - - - -
23/02:30pm 24.6 NE 17 20 1012.1 - 0.0 Rain Mostly clear 10 - - - -
23/02:00pm 25.8 NNE 18 24 1012.2 - 0.0 - Mostly clear 10 - - - -
23/01:30pm 26.7 NNE 17 21 1012.4 - 0.0 - Mostly clear 10 - - - -
23/01:00pm 27.2 NE 17 20 1012.0 - 0.0 - Mostly clear 10 - - - -
23/12:30pm 27.0 NNE 13 17 1012.7 - 0.0 - Mostly clear 10 - - - -
23/12:00pm 26.8 NNE 12 17 1013.2 F 0.0 Fine Mostly clear 25 - - - -
23/11:30am 26.0 NNE 8 13 1013.9 - 0.0 - Mostly clear 10 - - - -
23/11:00am 25.3 N 7 12 1014.3 - 0.0 - Mostly clear 10 - - - -
23/10:30am 24.4 N 8 13 1014.4 - 0.0 - Mostly clear 10 - - - -
23/10:00am 24.5 NNW 8 11 1014.6 - 0.0 - Mostly clear 10 - - - -
23/09:30am 24.0 N 9 12 1014.7 - 0.0 - Mostly clear 10 - - - -
23/09:00am 23.0 NNW 10 15 1015.3 F 0.0 Recent precip. Mostly cloudy 25 - - - -
23/08:30am 22.3 NNE 15 18 1014.8 - 0.0 Rain Mostly clear 10 - - - -
23/08:00am 22.2 NNE 16 21 1014.4 - 0.0 - Mostly clear 10 - - - -
23/07:30am 22.4 NNE 16 21 1014.5 - 0.0 Drizzle Mostly clear 10 - - - -
23/07:00am 22.1 NE 16 20 1014.3 - 0.0 - Partly cloudy 10 - - - -
23/06:30am 22.2 NNE 14 18 1014.4 - 0.0 - Cloudy 10 - - - -
23/06:00am 22.3 NE 13 18 1014.3 F 0.0 Recent precip. Cloudy 25 - - - -
23/05:30am 22.1 NNE 13 16 1014.4 - 0.0 Drizzle Mostly clear 10 - - - -
23/05:00am 21.9 NE 14 19 1014.1 - 0.0 - Mostly clear 10 - - - -
23/04:30am 21.5 NE 13 18 1014.2 - 0.0 Drizzle Mostly clear 10 - - - -
23/04:00am 21.8 NE 11 14 1014.5 - 0.0 - Mostly clear 10 - - - -
23/03:30am 22.0 NE 14 19 1014.4 - 0.0 - Mostly clear 10 - - - -
23/03:00am 22.4 NNE 12 16 1014.7 R 0.0 Fine Mostly cloudy 25 - - - -
23/02:30am 22.0 NNE 15 18 1014.9 - 0.0 - Mostly clear 10 - - - -
23/02:00am 22.0 NNE 17 21 1015.0 - 0.0 - Mostly clear 10 - - - -
23/01:30am 22.4 NNE 15 21 1015.2 - 0.0 - Mostly clear 10 - - - -
23/01:00am 22.3 NE 17 23 1014.8 - 0.0 - Mostly clear 10 - - - -
23/12:30am 22.4 NE 18 26 1015.1 - 0.0 - Mostly clear 10 - - - -
 
Date/Time
EDT
Temp

°C
Wind Pressure Rain
since 9am
mm
Weather Cloud Vis
km
Sea
Height
m
Swell
Dir
 
Speed
knots
Gust
knots
hPa Trend Height
m
Period
s
Dir
22/11:34pm 22.7 NE 19 31 1015.6 - 0.0 - Mostly clear 10 - - - -
22/11:30pm 22.7 NE 19 27 1015.6 - 0.0 - Mostly clear 10 - - - -
22/11:06pm 22.7 NNE 17 27 1015.8 - 0.0 - Mostly clear 10 - - - -
22/11:00pm 22.5 NNE 18 25 1015.7 - 0.0 - Mostly clear 10 - - - -
22/10:30pm 22.8 NNE 19 28 1015.5 - 0.0 - Mostly clear 10 - - - -
22/10:00pm 23.0 NNE 16 26 1015.5 - 0.0 - Mostly clear 10 - - - -
22/09:46pm 23.3 NNE 16 26 1015.4 - 0.0 - Mostly clear 10 - - - -
22/09:30pm 23.6 NNE 16 21 1015.6 - 0.0 - Mostly clear 10 - - - -
22/09:00pm 23.3 NNE 19 26 1015.7 F 0.0 Fine Mostly cloudy 22 - - - -
22/08:50pm 22.9 NNE 21 31 1015.3 - 0.0 - Mostly clear 10 - - - -
22/08:30pm 23.3 NE 23 30 1014.9 - 0.0 - Mostly clear 10 - - - -
22/08:09pm 23.0 NNE 22 32 1014.9 - 0.0 - Mostly clear 10 - - - -
22/08:00pm 23.1 NNE 25 32 1014.9 - 0.0 - Mostly clear 10 - - - -
22/07:30pm 23.4 NNE 23 28 1015.2 - 0.0 - Mostly clear 10 - - - -
22/07:00pm 23.8 NNE 19 27 1015.7 - 0.0 - Mostly clear 10 - - - -
22/06:57pm 24.0 NNE 17 27 1015.7 - 0.0 Showers Mostly clear 10 - - - -
22/06:30pm 23.9 NNE 17 22 1015.5 - 0.0 Showers Mostly clear 10 - - - -
22/06:05pm 25.3 NE 19 29 1015.1 - 0.0 - Mostly clear 10 - - - -
22/06:00pm 25.1 NE 22 29 1015.2 R 0.0 Distant precip. Mostly cloudy 15 - - - -
22/05:30pm 26.2 NNE 19 26 1015.2 - 0.0 - Mostly clear 10 - - - -
22/05:00pm 26.1 NNE 20 29 1015.5 - 0.0 - Mostly clear 10 - - - -
22/04:30pm 26.0 NNE 23 30 1015.2 - 0.0 - Mostly clear 10 - - - -
22/04:00pm 26.5 NE 23 29 1014.6 - 0.0 - Mostly clear 10 - - - -
22/03:30pm 25.7 NE 25 33 1014.5 - 0.0 - Mostly clear 10 - - - -
22/03:00pm 27.6 NE 28 32 1014.6 F 0.0 Fine Partly cloudy 25 - - - -
22/02:30pm 27.8 NE 26 32 1014.7 - 0.0 - Mostly clear 10 - - - -
22/02:00pm 28.4 NE 24 30 1015.1 - 0.0 - Mostly clear 10 - - - -
22/01:30pm 28.1 NE 24 29 1015.7 - 0.0 - Mostly clear 10 - - - -
22/01:00pm 27.8 NE 20 25 1015.8 - 0.0 - Mostly clear 10 - - - -
22/12:30pm 26.4 ENE 17 21 1016.2 - 0.0 - Mostly clear 10 - - - -
22/12:00pm 27.0 ENE 15 18 1016.5 R 0.0 Fine Partly cloudy 30 - - - -
22/11:30am 27.1 E 14 16 1016.4 - 0.0 - Mostly clear 10 - - - -
22/11:00am 26.2 ENE 10 14 1016.4 - 0.0 - Mostly clear 10 - - - -
22/10:30am 26.3 NE 8 13 1016.7 - 0.0 - Mostly clear 10 - - - -
22/10:00am 25.9 NNE 8 12 1016.6 - 0.0 - Mostly clear 10 - - - -
22/09:30am 26.4 NNE 8 13 1016.8 - 0.0 - Mostly clear 10 - - - -
22/09:00am 25.2 NNE 7 9 1016.8 R 0.0 Fine Partly cloudy 25 - - - -
22/08:30am 25.2 NE 10 13 1016.6 - 0.0 - Mostly clear 10 - - - -
22/08:00am 24.4 NNE 8 9 1016.4 - 0.0 - Mostly clear 10 - - - -
22/07:30am 23.4 NNE 10 12 1016.2 - 0.0 - Mostly clear 10 - - - -
22/07:00am 22.7 NNE 11 15 1016.0 - 0.0 - Mostly clear 10 - - - -
22/06:30am 22.2 NNE 8 10 1015.9 - 0.0 - Mostly clear 10 - - - -
22/06:00am 21.4 N 5 8 1015.5 F 0.0 Haze Partly cloudy 25 - - - -
22/05:30am 21.0 NE 9 14 1014.7 - 0.0 - - 10 - - - -
22/05:00am 21.3 NNE 8 10 1014.7 - 0.0 - - 10 - - - -
22/04:30am 20.6 NE 8 10 1014.5 - 0.0 - - 10 - - - -
22/04:00am 21.0 NE 8 10 1014.7 - 0.0 - - 10 - - - -
22/03:30am 21.2 NE 8 10 1014.9 - 0.0 - - 10 - - - -
22/03:00am 21.0 NE 7 9 1015.2 R 0.0 Fine Partly cloudy 30 - - - -
22/02:30am 21.2 NE 9 12 1015.4 - 0.0 - - 10 - - - -
22/02:00am 21.6 NNE 8 11 1015.5 - 0.0 - - 10 - - - -
22/01:30am 21.7 NNE 11 14 1015.6 - 0.0 - Mostly clear 10 - - - -
22/01:00am 22.0 NNE 10 14 1015.8 - 0.0 - Mostly clear 10 - - - -
22/12:30am 22.1 NNE 14 19 1016.2 - 0.0 - Mostly cloudy 10 - - - -
22/12:00am 22.1 NNE 15 18 1016.1 F 0.0 Fine Mostly cloudy 30 - - - -
 
Date/Time
EDT
Temp

°C
Wind Pressure Rain
since 9am
mm
Weather Cloud Vis
km
Sea
Height
m
Swell
Dir
 
Speed
knots
Gust
knots
hPa Trend Height
m
Period
s
Dir
21/11:30pm 22.5 NNE 15 19 1016.2 - 0.0 - Partly cloudy 10 - - - -
21/11:15pm 22.8 NNE 15 25 1016.2 - 0.0 - Partly cloudy 10 - - - -
21/11:00pm 22.8 NNE 15 18 1016.5 - 0.0 - Partly cloudy 10 - - - -
21/10:30pm 23.0 NNE 16 21 1016.5 - 0.0 - Mostly clear 10 - - - -
21/10:00pm 23.1 NNE 14 24 1016.7 - 0.0 - Mostly clear 10 - - - -
21/09:30pm 22.9 NNE 16 20 1016.7 - 0.0 - Partly cloudy 10 - - - -
21/09:00pm 22.8 NNE 15 23 1016.1 F 0.0 Fine Mostly clear 30 - - - -
21/08:30pm 23.4 NE 19 26 1015.6 - 0.0 - Mostly clear 10 - - - -
21/08:00pm 23.4 NE 21 28 1015.4 - 0.0 - Mostly clear 10 - - - -
21/07:30pm 24.0 NE 22 30 1015.1 - 0.0 - Mostly clear 10 - - - -
21/07:09pm 24.1 NE 22 32 1014.9 - 0.0 - Mostly clear 10 - - - -
21/07:00pm 24.5 NE 23 32 1014.9 - 0.0 - Mostly clear 10 - - - -
21/06:30pm 24.5 NE 21 28 1014.8 - 0.0 - Mostly clear 10 - - - -
21/06:00pm 25.1 NE 20 26 1014.9 F 0.0 Fine Partly cloudy 30 - - - -
21/05:30pm 25.4 NE 22 29 1014.7 - 0.0 - Mostly clear 10 - - - -
21/05:00pm 26.9 NE 21 27 1015.0 - 0.0 - Mostly clear 10 - - - -
21/04:30pm 26.1 NE 20 25 1015.1 - 0.0 - Mostly clear 10 - - - -
21/04:00pm 25.8 NE 20 25 1015.3 - 0.0 - Mostly clear 10 - - - -
21/03:30pm 26.4 NE 20 26 1015.7 - 0.0 - Mostly clear 10 - - - -
21/03:00pm 27.0 ENE 19 23 1015.8 F 0.0 Fine Mostly clear 40 - - - -
21/02:30pm 27.4 NE 17 24 1016.1 - 0.0 - Mostly clear 10 - - - -
21/02:00pm 26.7 ENE 18 22 1016.5 - 0.0 - Mostly clear 10 - - - -
21/01:30pm 26.9 NE 15 21 1017.0 - 0.0 - Mostly clear 10 - - - -
21/01:00pm 26.3 NE 15 19 1017.5 - 0.0 - Mostly clear 10 - - - -
21/12:30pm 26.9 NE 14 19 1017.9 - 0.0 - Mostly clear 10 - - - -
21/12:00pm 25.3 NE 15 20 1018.1 R 0.0 Fine Mostly clear 30 - - - -
21/11:30am 25.7 NNE 15 19 1017.9 - 0.0 - Mostly clear 10 - - - -
21/11:00am 25.9 NE 12 18 1018.0 - 0.0 - Partly cloudy 10 - - - -
21/10:30am 24.7 NE 13 16 1018.1 - 0.0 - Partly cloudy 10 - - - -
21/10:00am 23.8 NE 9 12 1018.3 - 0.0 - Partly cloudy 10 - - - -
21/09:30am 23.9 NE 9 16 1018.4 - 0.0 - Partly cloudy 10 - - - -
21/09:00am 22.8 N 5 8 1018.6 F 0.0 Fine Mostly clear 30 - - - -
21/08:30am 21.8 WNW 6 9 1018.6 - 0.0 - Mostly clear 10 - - - -
21/08:00am 21.3 WNW 5 7 1018.5 - 0.0 - Mostly clear 10 - - - -
21/07:30am 20.3 W 4 6 1018.2 - 0.0 - Mostly clear 10 - - - -
21/07:00am 19.9 WSW 4 6 1018.0 - 0.0 - Mostly clear 10 - - - -
21/06:30am 19.0 CALM 0 0 1017.8 - 0.0 - Mostly clear 10 - - - -
21/06:00am 18.4 W 4 5 1017.7 F 0.0 Fine Mostly clear 25 - - - -
21/05:30am 17.2 WSW 5 6 1017.5 - 0.0 - Mostly clear 10 - - - -
21/05:00am 17.5 SW 5 6 1017.3 - 0.0 - Mostly clear 10 - - - -
21/04:30am 17.8 SW 5 5 1017.2 - 0.0 - Mostly clear 10 - - - -
21/04:00am 18.0 SW 3 4 1017.1 - 0.0 - - 10 - - - -
21/03:30am 18.1 WSW 4 4 1017.2 - 0.0 - - 10 - - - -
21/03:00am 18.4 WSW 5 6 1017.4 F 0.0 Fine Clear 30 - - - -
21/02:30am 18.6 WSW 4 5 1017.5 - 0.0 - - 10 - - - -
21/02:00am 18.7 WSW 5 6 1017.8 - 0.0 - - 10 - - - -
21/01:30am 18.9 W 5 5 1018.1 - 0.0 - - 10 - - - -
21/01:00am 19.1 NNW 3 5 1018.4 - 0.0 - - 10 - - - -
21/12:30am 20.3 NNE 5 5 1018.4 - 0.0 - Mostly clear 10 - - - -
21/12:00am 19.9 NE 4 5 1018.8 R 0.0 Fine Mostly clear 30 - - - -
 
Date/Time
EDT
Temp

°C
Wind Pressure Rain
since 9am
mm
Weather Cloud Vis
km
Sea
Height
m
Swell
Dir
 
Speed
knots
Gust
knots
hPa Trend Height
m
Period
s
Dir
20/11:30pm 20.2 NNE 5 7 1018.9 - 0.0 - Mostly clear 10 - - - -
20/11:00pm 20.3 NE 7 9 1018.9 - 0.0 - Mostly clear 10 - - - -
20/10:30pm 20.2 NE 7 8 1018.8 - 0.0 - Mostly clear 10 - - - -
20/10:00pm 20.3 NE 7 9 1018.7 - 0.0 - - 10 - - - -
20/09:30pm 20.4 NE 9 10 1018.3 - 0.0 - - 10 - - - -
20/09:00pm 20.4 NE 9 12 1018.0 R 0.0 Fine Mostly clear 30 - - - -
20/08:30pm 20.9 ENE 10 14 1017.5 - 0.0 - - 10 - - - -
20/08:00pm 20.9 ENE 10 14 1017.2 - 0.0 - - 10 - - - -
20/07:30pm 21.0 ENE 13 16 1016.9 - 0.0 - - 10 - - - -
20/07:00pm 21.3 ENE 12 17 1016.7 - 0.0 - - 10 - - - -
20/06:30pm 21.5 ENE 13 17 1016.2 - 0.0 - - 10 - - - -
20/06:00pm 21.8 ENE 13 18 1015.9 F 0.0 Fine Clear 30 - - - -
20/05:30pm 21.9 ENE 13 18 1015.8 - 0.0 - - 10 - - - -
20/05:00pm 22.3 E 14 20 1015.9 - 0.0 - - 10 - - - -
20/04:30pm 22.2 E 15 18 1016.0 - 0.0 - - 10 - - - -

Other Formats:

Comma delimited format used in spreadsheet applications
http://www.bom.gov.au/fwo/IDN60701/IDN60701.94767.axf

JavaScript Object Notation format (JSON) in row-major order
http://www.bom.gov.au/fwo/IDN60701/IDN60701.94767.json